• Join FlightAware (Why Join?)
  • Login
  • US Flag 
05:59PM EDT


 

Airport Tracker/Info


-or-


 

Live Flight TrackerFlight Track Log ✈ UCA4793 ✈ 07-May-2013 ✈ KSYR - KCLE

Flight Track Log - Related Links

Times and Time Zones

All times are in EDT time to prevent confusion due to time zone crossing. See the UCA4793 flight status page for this flight to view local times or setup timezone preferences in your user account.

Time Position Orientation Groundspeed Altitude Reporting Facility
EDT Latitude Longitude Course Direction KTS MPH feet Rate Location/Type
06:03PM 43.1044 -76.1006 132° Southeast 122 140 1,000  Level Boston Center
06:04PM 43.0906 -76.0797 132° Southeast 128 147 1,800 1,200 Climbing Boston Center
06:05PM 43.0397 -76.1022 198° South 197 227 3,100 1,080 Climbing Boston Center
06:06PM 43.0586 -76.1658 292° West 211 243 4,200 1,500 Climbing Boston Center
06:07PM 43.1042 -76.2342 312° West 202 232 6,400 1,680 Climbing Boston Center
06:09PM 43.1881 -76.3686 311° West 205 236 10,200 1,500 Climbing Cleveland Center
06:10PM 43.2011 -76.4447 283° West 194 223 11,700 1,500 Climbing Cleveland Center
06:11PM 43.2122 -76.5236 281° West 201 231 13,200 1,440 Climbing Cleveland Center
06:12PM 43.2253 -76.5997 283° West 206 237 14,700 1,260 Climbing Cleveland Center
06:13PM 43.2383 -76.6789 283° West 212 244 15,800 600 Climbing Cleveland Center
06:14PM 43.2561 -76.7717 285° West 231 266 16,000 60 Climbing Cleveland Center
06:15PM 43.2742 -76.8733 284° West 261 300 16,000  Level Cleveland Center
06:16PM 43.2900 -76.9808 281° West 282 325 16,000  Level Cleveland Center
06:17PM 43.3058 -77.0911 281° West 293 337 16,000  Level Cleveland Center
06:18PM 43.2794 -77.1867 249° West 272 313 16,000  Level Cleveland Center
06:19PM 43.2361 -77.2689 234° Southwest 267 307 16,000  Level Cleveland Center
06:20PM 43.1883 -77.3514 232° Southwest 272 313 16,000  Level Cleveland Center
06:21PM 43.1447 -77.4303 233° Southwest 277 319 16,000  Level Cleveland Center
06:22PM 43.0989 -77.5153 234° Southwest 277 319 16,000  Level Cleveland Center
06:23PM 43.0531 -77.5942 232° Southwest 277 319 16,000  Level Cleveland Center
06:24PM 43.0094 -77.6786 235° Southwest 277 319 16,000  Level Cleveland Center
06:25PM 42.9636 -77.7603 233° Southwest 277 319 16,000  Level Cleveland Center
06:26PM 42.9175 -77.8417 232° Southwest 277 319 16,000  Level Cleveland Center
06:27PM 42.8736 -77.9258 235° Southwest 277 319 16,000  Level Cleveland Center
06:28PM 42.8253 -78.0042 230° Southwest 277 319 16,000  Level Cleveland Center
06:29PM 42.7814 -78.0881 235° Southwest 277 319 16,000  Level Cleveland Center
06:30PM 42.7372 -78.1661 232° Southwest 277 319 16,000  Level Cleveland Center
06:31PM 42.6950 -78.2469 235° Southwest 277 319 16,000  Level Cleveland Center
06:32PM 42.6614 -78.3358 243° Southwest 277 319 16,000  Level Cleveland Center
06:33PM 42.6297 -78.4186 243° Southwest 277 319 16,000  Level Cleveland Center
06:34PM 42.5958 -78.5072 243° Southwest 272 313 16,000  Level Cleveland Center
06:35PM 42.5597 -78.5958 241° Southwest 272 313 16,000  Level Cleveland Center
06:36PM 42.5281 -78.6842 244° Southwest 272 313 16,000  Level Cleveland Center
06:37PM 42.4919 -78.7725 241° Southwest 272 313 16,000  Level Cleveland Center
06:38PM 42.4558 -78.8608 241° Southwest 272 313 16,000  Level Cleveland Center
06:39PM 42.4194 -78.9519 242° Southwest 277 319 16,000  Level Cleveland Center
06:40PM 42.3853 -79.0428 243° Southwest 277 319 16,000  Level Cleveland Center
06:41PM 42.3511 -79.1278 241° Southwest 271 312 16,000  Level Cleveland Center
06:42PM 42.3144 -79.2158 241° Southwest 271 312 16,000  Level Cleveland Center
06:43PM 42.2800 -79.3033 242° Southwest 271 312 16,000  Level Cleveland Center
06:44PM 42.2417 -79.4025 242° Southwest 271 312 16,000  Level Cleveland Center
06:45PM 42.2050 -79.4928 241° Southwest 271 312 16,000  Level Cleveland Center
06:46PM 42.1703 -79.5775 241° Southwest 271 312 16,000  Level Cleveland Center
06:47PM 42.1356 -79.6703 243° Southwest 276 318 16,000  Level Cleveland Center
06:48PM 42.0989 -79.7578 241° Southwest 276 318 16,000  Level Cleveland Center
06:49PM 42.0619 -79.8478 241° Southwest 276 318 16,000  Level Cleveland Center
06:50PM 42.0269 -79.9347 242° Southwest 276 318 16,000  Level Cleveland Center
06:51PM 41.9919 -80.0189 241° Southwest 281 323 16,000 -180 Level Cleveland Center
06:52PM 41.9547 -80.1086 241° Southwest 281 323 15,700 -720 Descending Cleveland Center
06:53PM 41.9219 -80.2008 244° Southwest 281 323 14,600 -1,140 Descending Cleveland Center
06:54PM 41.8867 -80.2847 241° Southwest 273 314 13,500 -1,140 Descending Cleveland Center
06:55PM 41.8514 -80.3628 239° Southwest 260 299 12,400 -780 Descending Cleveland Center
06:56PM 41.8119 -80.4550 240° Southwest 260 299 12,000 -180 Descending Cleveland Center
06:57PM 41.7767 -80.5442 242° Southwest 260 299 12,100  Climbing Cleveland Center
06:58PM 41.7431 -80.6278 242° Southwest 260 299 12,000 -60 Descending Cleveland Center
06:59PM 41.7056 -80.7111 239° Southwest 265 305 12,000  Level Cleveland Center
07:00PM 41.6700 -80.7944 240° Southwest 260 299 12,000  Level Cleveland Center
07:01PM 41.6344 -80.8806 241° Southwest 260 299 12,000 -240 Level Cleveland Center
07:02PM 41.6092 -80.9414 241° Southwest 268 308 11,600 -840 Descending Cleveland Center
07:02PM 41.5986 -80.9692 243° Southwest 260 299 11,200 -1,200 Descending Cleveland Center
07:03PM 41.5714 -81.0328 240° Southwest 278 320 10,400 -1,140 Descending Cleveland Center
07:04PM 41.5272 -81.1406 241° Southwest 258 297 9,000 -720 Descending Cleveland Center
07:05PM 41.5081 -81.2153 251° West 268 308 9,000  Level Cleveland Center
07:06PM 41.4947 -81.3206 260° West 261 300 9,000  Level Cleveland Center
07:07PM 41.4817 -81.4092 259° West 244 281 9,100 -360 Climbing Cleveland Center
07:08PM 41.4747 -81.4922 264° West 242 278 8,400 -1,080 Descending Cleveland Center
07:09PM 41.4594 -81.5750 256° West 239 275 7,100 -660 Descending Cleveland Center
07:10PM 41.4294 -81.6769 249° West 257 296 7,100  Level Cleveland Center
07:11PM 41.3911 -81.7483 234° Southwest 258 297 7,100 -660 Level Cleveland Center
07:12PM 41.3528 -81.8361 240° Southwest 239 275 5,800 -1,320 Descending Cleveland Center
07:13PM 41.3353 -81.9106 253° West 204 235 4,500 -1,620 Descending Cleveland Center
07:14PM 41.3683 -81.9222 345° North 147 169 2,800 -1,800 Descending Cleveland Center
07:15PM 41.3917 -81.8894 46° Northeast 106 122 1,100 -1,680 Descending Cleveland Center
07:17PM 41.4000 -81.8500 29° Northeast  Level FlightAware Approximate